Ashland, Missouri
Current Conditions -  °F | °C
As of 9:54 PM on Thursday 27 Nov 2014 (Local Time) from KCOU Reporting Station
Clear Clear  
Wind Chill: 24°   Ceiling: Unl
Heat Index: 31°   Visibility: 10mi
Dew Point: 24°   Wind: 7mph
Humidity: 76%   Direction: 120°ESE
Pressure: 30.36"   Gusts: NA
Location:  38.77°N, 92.26°W
Report Text: KCOU 280354Z AUTO 12006KT 10SM CLR M01/M04 A3036 RMK AO2 SLP290 T10061044
Loading
Personal Weather Stations






























Interactive Weather Map New forecast layout! Learn more

10-Day Weather Forecast

Advertisements
Track Severe Weather on mobile